www.cux-wetter.de
Wetterdaten: Mittwoch, 30.04.2008
Datum Zeit Temp. A. Feuchte A. Luftdruck Regen Wind Richtung Richtung Sonnenschein Solar Taupunkt Windchill Windben
30.04.2008 00:04 8,7 C 93 % 1001,5 hPa 0,0 l/m 6,3 km/h (2 Bft) SO 145 0 min 0 W/m 7,6 C 8,7 C 6,3 km/h (2 Bft)
30.04.2008 00:09 8,7 C 93 % 1001,5 hPa 0,0 l/m 9,8 km/h (2 Bft) SO 145 0 min 0 W/m 7,6 C 6,3 C 9,8 km/h (2 Bft)
30.04.2008 00:14 8,7 C 93 % 1001,5 hPa 0,0 l/m 7,8 km/h (2 Bft) S-SO 160 0 min 0 W/m 7,6 C 7,6 C 7,8 km/h (2 Bft)
30.04.2008 00:19 8,8 C 94 % 1001,5 hPa 0,0 l/m 7,4 km/h (2 Bft) S-SO 155 0 min 0 W/m 7,9 C 8,0 C 7,4 km/h (2 Bft)
30.04.2008 00:24 8,7 C 94 % 1001,5 hPa 0,0 l/m 8,0 km/h (2 Bft) SO 135 0 min 0 W/m 7,8 C 7,5 C 8,0 km/h (2 Bft)
30.04.2008 00:29 8,7 C 94 % 1001,5 hPa 0,0 l/m 8,5 km/h (2 Bft) S-SO 160 0 min 0 W/m 7,8 C 7,1 C 8,5 km/h (2 Bft)
30.04.2008 00:34 8,8 C 94 % 1001,5 hPa 0,0 l/m 10,1 km/h (2 Bft) S-SO 160 0 min 0 W/m 7,9 C 6,2 C 10,1 km/h (2 Bft)
30.04.2008 00:39 8,8 C 94 % 1001,5 hPa 0,0 l/m 8,5 km/h (2 Bft) SO 145 0 min 0 W/m 7,9 C 7,2 C 8,5 km/h (2 Bft)
30.04.2008 00:44 8,8 C 94 % 1001,5 hPa 0,0 l/m 9,2 km/h (2 Bft) S-SO 165 0 min 0 W/m 7,9 C 6,8 C 9,2 km/h (2 Bft)
30.04.2008 00:49 8,8 C 94 % 1001,5 hPa 0,0 l/m 11,0 km/h (2 Bft) S-SO 155 0 min 0 W/m 7,9 C 5,7 C 11,0 km/h (2 Bft)
30.04.2008 00:54 8,8 C 94 % 1001,5 hPa 0,0 l/m 8,2 km/h (2 Bft) SO 145 0 min 0 W/m 7,9 C 7,5 C 8,2 km/h (2 Bft)
30.04.2008 00:59 8,8 C 94 % 1001,5 hPa 0,0 l/m 9,0 km/h (2 Bft) S-SO 150 0 min 0 W/m 7,9 C 6,9 C 9,0 km/h (2 Bft)
30.04.2008 01:04 8,8 C 94 % 1001,5 hPa 0,0 l/m 10,9 km/h (2 Bft) S-SO 160 0 min 0 W/m 7,9 C 5,7 C 10,9 km/h (2 Bft)
30.04.2008 01:09 8,9 C 95 % 1001,5 hPa 0,0 l/m 10,9 km/h (2 Bft) S-SO 160 0 min 0 W/m 8,1 C 5,9 C 10,9 km/h (2 Bft)
30.04.2008 01:14 9,0 C 95 % 1001,5 hPa 0,0 l/m 12,0 km/h (2 Bft) S-SO 160 0 min 0 W/m 8,2 C 5,4 C 12,0 km/h (2 Bft)
30.04.2008 01:19 9,1 C 95 % 1001,5 hPa 0,0 l/m 13,3 km/h (3 Bft) S-SO 165 0 min 0 W/m 8,3 C 4,8 C 13,3 km/h (3 Bft)
30.04.2008 01:24 9,1 C 95 % 1001,5 hPa 0,0 l/m 13,2 km/h (3 Bft) S-SO 150 0 min 0 W/m 8,3 C 4,9 C 13,2 km/h (3 Bft)
30.04.2008 01:29 9,0 C 95 % 1001,5 hPa 0,0 l/m 10,0 km/h (2 Bft) S-SO 160 0 min 0 W/m 8,2 C 6,5 C 10,0 km/h (2 Bft)
30.04.2008 01:34 9,0 C 95 % 1001,5 hPa 0,0 l/m 12,1 km/h (2 Bft) S-SO 165 0 min 0 W/m 8,2 C 5,3 C 12,1 km/h (2 Bft)
30.04.2008 01:39 9,0 C 95 % 1001,5 hPa 0,0 l/m 11,3 km/h (2 Bft) S-SO 165 0 min 0 W/m 8,2 C 5,7 C 11,3 km/h (2 Bft)
30.04.2008 01:44 9,0 C 95 % 1001,5 hPa 0,0 l/m 10,3 km/h (2 Bft) S-SO 165 0 min 0 W/m 8,2 C 6,3 C 10,3 km/h (2 Bft)
30.04.2008 01:49 8,9 C 95 % 1001,5 hPa 0,0 l/m 9,7 km/h (2 Bft) S-SO 165 0 min 0 W/m 8,1 C 6,6 C 9,7 km/h (2 Bft)
30.04.2008 01:54 8,8 C 95 % 1001,5 hPa 0,0 l/m 10,4 km/h (2 Bft) S-SO 165 0 min 0 W/m 8,0 C 6,0 C 10,4 km/h (2 Bft)
30.04.2008 01:59 8,8 C 95 % 1001,5 hPa 0,0 l/m 10,7 km/h (2 Bft) S-SO 160 0 min 0 W/m 8,0 C 5,9 C 10,7 km/h (2 Bft)
30.04.2008 02:04 8,8 C 95 % 1001,5 hPa 0,0 l/m 9,2 km/h (2 Bft) S-SO 160 0 min 0 W/m 8,0 C 6,8 C 9,2 km/h (2 Bft)
30.04.2008 02:09 8,7 C 95 % 1001,5 hPa 0,0 l/m 8,1 km/h (2 Bft) S-SO 160 0 min 0 W/m 7,9 C 7,4 C 8,1 km/h (2 Bft)
30.04.2008 02:14 8,6 C 95 % 1001,5 hPa 0,0 l/m 9,4 km/h (2 Bft) S-SO 160 0 min 0 W/m 7,8 C 6,4 C 9,4 km/h (2 Bft)
30.04.2008 02:19 8,6 C 95 % 1001,5 hPa 0,0 l/m 10,8 km/h (2 Bft) S-SO 160 0 min 0 W/m 7,8 C 5,6 C 10,8 km/h (2 Bft)
30.04.2008 02:24 8,5 C 95 % 1001,5 hPa 0,0 l/m 9,4 km/h (2 Bft) S-SO 150 0 min 0 W/m 7,7 C 6,3 C 9,4 km/h (2 Bft)
30.04.2008 02:29 8,5 C 95 % 1001,5 hPa 0,0 l/m 10,9 km/h (2 Bft) S-SO 165 0 min 0 W/m 7,7 C 5,4 C 10,9 km/h (2 Bft)
30.04.2008 02:34 8,4 C 95 % 1001,5 hPa 0,0 l/m 9,0 km/h (2 Bft) S-SO 155 0 min 0 W/m 7,6 C 6,5 C 9,0 km/h (2 Bft)
30.04.2008 02:39 8,3 C 95 % 1001,5 hPa 0,0 l/m 8,7 km/h (2 Bft) SO 140 0 min 0 W/m 7,5 C 6,6 C 8,7 km/h (2 Bft)
30.04.2008 02:44 8,3 C 95 % 1001,5 hPa 0,0 l/m 10,6 km/h (2 Bft) SO 140 0 min 0 W/m 7,5 C 5,4 C 10,6 km/h (2 Bft)
30.04.2008 02:49 8,2 C 95 % 1001,5 hPa 0,0 l/m 4,9 km/h (1 Bft) SO 125 0 min 0 W/m 7,4 C 8,2 C 4,9 km/h (1 Bft)
30.04.2008 02:53 8,1 C 95 % 1001,5 hPa 0,0 l/m 5,7 km/h (2 Bft) S-SO 150 0 min 0 W/m 7,3 C 8,1 C 5,7 km/h (2 Bft)
30.04.2008 02:59 8,1 C 95 % 1001,5 hPa 0,0 l/m 7,0 km/h (2 Bft) SO 125 0 min 0 W/m 7,3 C 7,6 C 7,0 km/h (2 Bft)
30.04.2008 03:04 8,1 C 95 % 1001,5 hPa 0,0 l/m 8,0 km/h (2 Bft) O-SO 115 0 min 0 W/m 7,3 C 6,9 C 8,0 km/h (2 Bft)
30.04.2008 03:09 8,1 C 95 % 1001,5 hPa 0,0 l/m 7,6 km/h (2 Bft) O-SO 105 0 min 0 W/m 7,3 C 7,2 C 7,6 km/h (2 Bft)
30.04.2008 03:14 8,1 C 95 % 1001,5 hPa 0,0 l/m 8,9 km/h (2 Bft) O-SO 115 0 min 0 W/m 7,3 C 6,2 C 8,9 km/h (2 Bft)
30.04.2008 03:19 8,1 C 95 % 1001,5 hPa 0,0 l/m 10,4 km/h (2 Bft) SO 135 0 min 0 W/m 7,3 C 5,2 C 10,4 km/h (2 Bft)
30.04.2008 03:24 8,1 C 95 % 1001,5 hPa 0,0 l/m 10,8 km/h (2 Bft) SO 145 0 min 0 W/m 7,3 C 5,0 C 10,8 km/h (2 Bft)
30.04.2008 03:29 8,1 C 95 % 1001,5 hPa 0,0 l/m 11,1 km/h (2 Bft) O-SO 110 0 min 0 W/m 7,3 C 4,8 C 11,1 km/h (2 Bft)
30.04.2008 03:34 8,2 C 96 % 1001,5 hPa 0,0 l/m 7,2 km/h (2 Bft) O-SO 115 0 min 0 W/m 7,6 C 7,6 C 7,2 km/h (2 Bft)
30.04.2008 03:39 8,1 C 95 % 1000,5 hPa 0,0 l/m 5,8 km/h (2 Bft) O-SO 110 0 min 0 W/m 7,3 C 8,1 C 5,8 km/h (2 Bft)
30.04.2008 03:44 8,1 C 95 % 1000,5 hPa 0,0 l/m 5,8 km/h (2 Bft) O-SO 105 0 min 0 W/m 7,3 C 8,1 C 5,8 km/h (2 Bft)
30.04.2008 03:49 8,0 C 96 % 1000,5 hPa 0,0 l/m 6,7 km/h (2 Bft) O-SO 120 0 min 0 W/m 7,4 C 7,8 C 6,7 km/h (2 Bft)
30.04.2008 03:54 8,1 C 96 % 1000,5 hPa 0,0 l/m 7,4 km/h (2 Bft) O-SO 105 0 min 0 W/m 7,5 C 7,3 C 7,4 km/h (2 Bft)
30.04.2008 03:59 8,2 C 96 % 1000,5 hPa 0,0 l/m 8,1 km/h (2 Bft) SO 135 0 min 0 W/m 7,6 C 6,9 C 8,1 km/h (2 Bft)
30.04.2008 04:04 8,2 C 96 % 1000,5 hPa 0,0 l/m 8,9 km/h (2 Bft) SO 145 0 min 0 W/m 7,6 C 6,3 C 8,9 km/h (2 Bft)
30.04.2008 04:09 8,2 C 96 % 1000,5 hPa 0,0 l/m 11,1 km/h (2 Bft) S-SO 155 0 min 0 W/m 7,6 C 4,9 C 11,1 km/h (2 Bft)
30.04.2008 04:14 8,2 C 96 % 1000,5 hPa 0,0 l/m 9,0 km/h (2 Bft) SO 140 0 min 0 W/m 7,6 C 6,3 C 9,0 km/h (2 Bft)
30.04.2008 04:19 8,1 C 96 % 1000,5 hPa 0,0 l/m 8,7 km/h (2 Bft) SO 140 0 min 0 W/m 7,5 C 6,4 C 8,7 km/h (2 Bft)
30.04.2008 04:24 8,1 C 96 % 1000,5 hPa 0,0 l/m 3,8 km/h (1 Bft) SO 135 0 min 0 W/m 7,5 C 8,1 C 3,8 km/h (1 Bft)
30.04.2008 04:29 8,2 C 96 % 1000,5 hPa 0,0 l/m 11,0 km/h (2 Bft) SO 125 0 min 0 W/m 7,6 C 5,0 C 11,0 km/h (2 Bft)
30.04.2008 04:34 8,2 C 96 % 1000,5 hPa 0,0 l/m 10,0 km/h (2 Bft) O-SO 120 0 min 0 W/m 7,6 C 5,6 C 10,0 km/h (2 Bft)
30.04.2008 04:39 8,2 C 96 % 1000,5 hPa 0,0 l/m 9,3 km/h (2 Bft) SO 140 0 min 0 W/m 7,6 C 6,1 C 9,3 km/h (2 Bft)
30.04.2008 04:44 8,2 C 96 % 1000,5 hPa 0,0 l/m 11,7 km/h (2 Bft) SO 125 0 min 0 W/m 7,6 C 4,6 C 11,7 km/h (2 Bft)
30.04.2008 04:49 9,0 C 97 % 1000,5 hPa 0,0 l/m 9,2 km/h (2 Bft) S-SO 155 0 min 0 W/m 8,5 C 7,0 C 9,2 km/h (2 Bft)
30.04.2008 04:54 9,4 C 97 % 1000,5 hPa 0,0 l/m 8,9 km/h (2 Bft) SO 145 0 min 0 W/m 8,9 C 7,6 C 8,9 km/h (2 Bft)
30.04.2008 04:59 9,5 C 96 % 1000,5 hPa 0,0 l/m 9,6 km/h (2 Bft) SO 140 0 min 0 W/m 8,9 C 7,3 C 9,6 km/h (2 Bft)
30.04.2008 05:04 9,7 C 96 % 1000,5 hPa 0,0 l/m 11,1 km/h (2 Bft) SO 140 0 min 0 W/m 9,1 C 6,6 C 11,1 km/h (2 Bft)
30.04.2008 05:09 9,7 C 96 % 1000,5 hPa 0,0 l/m 5,4 km/h (2 Bft) SO 140 0 min 0 W/m 9,1 C 9,7 C 5,4 km/h (2 Bft)
30.04.2008 05:14 9,7 C 96 % 1000,5 hPa 0,0 l/m 11,9 km/h (2 Bft) S-SO 160 0 min 0 W/m 9,1 C 6,2 C 11,9 km/h (2 Bft)
30.04.2008 05:19 9,7 C 96 % 1000,5 hPa 0,0 l/m 9,6 km/h (2 Bft) SO 135 0 min 0 W/m 9,1 C 7,5 C 9,6 km/h (2 Bft)
30.04.2008 05:24 9,8 C 95 % 1000,5 hPa 0,0 l/m 7,9 km/h (2 Bft) SO 130 0 min 0 W/m 9,0 C 8,7 C 7,9 km/h (2 Bft)
30.04.2008 05:29 9,8 C 95 % 1000,5 hPa 0,0 l/m 8,7 km/h (2 Bft) SO 135 0 min 0 W/m 9,0 C 8,2 C 8,7 km/h (2 Bft)
30.04.2008 05:34 9,8 C 94 % 1000,5 hPa 0,0 l/m 7,1 km/h (2 Bft) SO 140 0 min 0 W/m 8,9 C 9,3 C 7,1 km/h (2 Bft)
30.04.2008 05:39 9,9 C 94 % 1000,5 hPa 0,0 l/m 11,0 km/h (2 Bft) SO 145 0 min 0 W/m 9,0 C 6,9 C 11,0 km/h (2 Bft)
30.04.2008 05:44 9,9 C 94 % 1000,5 hPa 0,0 l/m 9,4 km/h (2 Bft) SO 145 0 min 0 W/m 9,0 C 7,8 C 9,4 km/h (2 Bft)
30.04.2008 05:49 9,8 C 93 % 1000,5 hPa 0,0 l/m 10,2 km/h (2 Bft) SO 125 0 min 0 W/m 8,7 C 7,3 C 10,2 km/h (2 Bft)
30.04.2008 05:54 9,7 C 93 % 1000,5 hPa 0,0 l/m 10,1 km/h (2 Bft) SO 125 0 min 0 W/m 8,6 C 7,2 C 10,1 km/h (2 Bft)
30.04.2008 05:59 9,6 C 93 % 1000,5 hPa 0,0 l/m 10,4 km/h (2 Bft) SO 135 0 min 0 W/m 8,5 C 6,9 C 10,4 km/h (2 Bft)
30.04.2008 06:04 9,6 C 92 % 1000,5 hPa 0,0 l/m 5,0 km/h (1 Bft) O-SO 110 0 min 0 W/m 8,4 C 9,6 C 5,0 km/h (1 Bft)
30.04.2008 06:08 9,5 C 92 % 1000,5 hPa 0,0 l/m 9,4 km/h (2 Bft) SO 140 0 min 0 W/m 8,3 C 7,4 C 9,4 km/h (2 Bft)
30.04.2008 06:14 9,5 C 92 % 1000,5 hPa 0,0 l/m 10,1 km/h (2 Bft) S-SO 150 0 min 0 W/m 8,3 C 7,0 C 10,1 km/h (2 Bft)
30.04.2008 06:19 9,6 C 92 % 1000,5 hPa 0,0 l/m 7,3 km/h (2 Bft) SO 140 0 min 0 W/m 8,4 C 8,9 C 7,3 km/h (2 Bft)
30.04.2008 06:24 9,6 C 92 % 1000,5 hPa 0,0 l/m 9,0 km/h (2 Bft) SO 125 0 min 0 W/m 8,4 C 7,8 C 9,0 km/h (2 Bft)
30.04.2008 06:29 9,8 C 92 % 1000,5 hPa 0,0 l/m 13,1 km/h (3 Bft) S-SO 150 0 min 0 W/m 8,6 C 5,7 C 13,1 km/h (3 Bft)
30.04.2008 06:34 9,8 C 92 % 1000,5 hPa 0,0 l/m 8,3 km/h (2 Bft) SO 140 0 min 0 W/m 8,6 C 8,4 C 8,3 km/h (2 Bft)
30.04.2008 06:39 9,8 C 91 % 1000,5 hPa 0,0 l/m 10,9 km/h (2 Bft) SO 140 0 min 0 W/m 8,4 C 6,9 C 10,9 km/h (2 Bft)
30.04.2008 06:44 9,7 C 91 % 1000,5 hPa 0,0 l/m 10,4 km/h (2 Bft) SO 135 0 min 0 W/m 8,3 C 7,0 C 10,4 km/h (2 Bft)
30.04.2008 06:49 9,8 C 92 % 1000,5 hPa 0,0 l/m 9,8 km/h (2 Bft) SO 140 0 min 0 W/m 8,6 C 7,5 C 9,8 km/h (2 Bft)
30.04.2008 06:54 9,8 C 91 % 1000,5 hPa 0,0 l/m 10,0 km/h (2 Bft) SO 140 0 min 0 W/m 8,4 C 7,4 C 10,0 km/h (2 Bft)
30.04.2008 06:59 9,9 C 91 % 1000,5 hPa 0,0 l/m 10,3 km/h (2 Bft) SO 135 0 min 0 W/m 8,5 C 7,3 C 10,3 km/h (2 Bft)
30.04.2008 07:04 9,8 C 91 % 1000,5 hPa 0,0 l/m 9,2 km/h (2 Bft) O-SO 115 0 min 0 W/m 8,4 C 7,9 C 9,2 km/h (2 Bft)
30.04.2008 07:09 9,8 C 91 % 1000,5 hPa 0,0 l/m 9,3 km/h (2 Bft) O-SO 120 0 min 0 W/m 8,4 C 7,8 C 9,3 km/h (2 Bft)
30.04.2008 07:14 9,8 C 91 % 1000,5 hPa 0,0 l/m 11,1 km/h (2 Bft) S-SO 150 0 min 0 W/m 8,4 C 6,8 C 11,1 km/h (2 Bft)
30.04.2008 07:19 9,8 C 91 % 1000,5 hPa 0,0 l/m 10,1 km/h (2 Bft) S-SO 150 0 min 0 W/m 8,4 C 7,3 C 10,1 km/h (2 Bft)
30.04.2008 07:24 9,9 C 91 % 1000,5 hPa 0,0 l/m 9,5 km/h (2 Bft) S-SO 160 0 min 0 W/m 8,5 C 7,8 C 9,5 km/h (2 Bft)
30.04.2008 07:29 9,8 C 91 % 1000,5 hPa 0,0 l/m 12,9 km/h (3 Bft) SO 145 0 min 0 W/m 8,4 C 5,8 C 12,9 km/h (3 Bft)
30.04.2008 07:34 9,9 C 91 % 1000,5 hPa 0,0 l/m 17,0 km/h (3 Bft) SO 145 0 min 0 W/m 8,5 C 4,2 C 17,0 km/h (3 Bft)
30.04.2008 07:39 9,9 C 91 % 1000,5 hPa 0,3 l/m 11,9 km/h (2 Bft) SO 140 0 min 0 W/m 8,5 C 6,4 C 11,9 km/h (2 Bft)
30.04.2008 07:44 10,0 C 91 % 1000,5 hPa 0,0 l/m 11,7 km/h (2 Bft) SO 125 0 min 0 W/m 8,6 C 6,7 C 11,7 km/h (2 Bft)
30.04.2008 07:49 10,0 C 91 % 1000,5 hPa 0,0 l/m 11,1 km/h (2 Bft) S-SO 150 0 min 0 W/m 8,6 C 7,0 C 11,1 km/h (2 Bft)
30.04.2008 07:54 10,1 C 91 % 1000,5 hPa 0,0 l/m 13,1 km/h (3 Bft) SO 145 0 min 0 W/m 8,7 C 6,1 C 13,1 km/h (3 Bft)
30.04.2008 07:59 10,2 C 91 % 1000,5 hPa 0,0 l/m 10,3 km/h (2 Bft) O 100 0 min 0 W/m 8,8 C 7,6 C 10,3 km/h (2 Bft)
30.04.2008 08:04 10,3 C 91 % 1000,5 hPa 0,0 l/m 16,4 km/h (3 Bft) SO 130 0 min 0 W/m 8,9 C 4,9 C 16,4 km/h (3 Bft)
30.04.2008 08:09 10,4 C 91 % 1000,5 hPa 0,0 l/m 9,9 km/h (2 Bft) O-SO 110 0 min 0 W/m 9,0 C 8,1 C 9,9 km/h (2 Bft)
30.04.2008 08:14 10,4 C 91 % 1000,5 hPa 0,0 l/m 11,5 km/h (2 Bft) S-SO 160 0 min 0 W/m 9,0 C 7,2 C 11,5 km/h (2 Bft)
30.04.2008 08:19 10,4 C 90 % 1000,5 hPa 0,0 l/m 12,3 km/h (2 Bft) O-SO 115 0 min 0 W/m 8,8 C 6,8 C 12,3 km/h (2 Bft)
30.04.2008 08:24 10,6 C 90 % 1000,5 hPa 0,0 l/m 14,9 km/h (3 Bft) SO 135 0 min 0 W/m 9,0 C 5,9 C 14,9 km/h (3 Bft)
30.04.2008 08:29 10,6 C 90 % 1000,5 hPa 0,0 l/m 16,0 km/h (3 Bft) S-SO 155 0 min 0 W/m 9,0 C 5,5 C 16,0 km/h (3 Bft)
30.04.2008 08:34 10,6 C 90 % 1000,5 hPa 0,0 l/m 14,7 km/h (3 Bft) SO 140 0 min 0 W/m 9,0 C 6,0 C 14,7 km/h (3 Bft)
30.04.2008 08:39 10,8 C 89 % 1000,5 hPa 0,0 l/m 14,1 km/h (3 Bft) S-SO 150 0 min 0 W/m 9,1 C 6,5 C 14,1 km/h (3 Bft)
30.04.2008 08:44 11,0 C 90 % 1000,5 hPa 0,0 l/m 14,3 km/h (3 Bft) S-SO 155 0 min 0 W/m 9,4 C 6,6 C 14,3 km/h (3 Bft)
30.04.2008 08:49 11,1 C 88 % 1000,5 hPa 0,0 l/m 17,0 km/h (3 Bft) O 95 0 min 0 W/m 9,2 C 5,7 C 17,0 km/h (3 Bft)
30.04.2008 08:54 11,2 C 88 % 1000,5 hPa 0,0 l/m 13,0 km/h (3 Bft) O-SO 120 0 min 0 W/m 9,3 C 7,4 C 13,0 km/h (3 Bft)
30.04.2008 08:59 11,2 C 88 % 1000,5 hPa 0,0 l/m 14,9 km/h (3 Bft) S-SO 155 0 min 0 W/m 9,3 C 6,6 C 14,9 km/h (3 Bft)
30.04.2008 09:04 11,5 C 87 % 1000,5 hPa 0,0 l/m 10,5 km/h (2 Bft) S-SO 160 0 min 0 W/m 9,4 C 9,0 C 10,5 km/h (2 Bft)
30.04.2008 09:09 11,6 C 87 % 1000,5 hPa 0,0 l/m 16,0 km/h (3 Bft) SO 140 0 min 0 W/m 9,5 C 6,7 C 16,0 km/h (3 Bft)
30.04.2008 09:14 11,6 C 85 % 1000,5 hPa 0,0 l/m 21,0 km/h (4 Bft) S-SO 155 0 min 0 W/m 9,2 C 5,1 C 21,0 km/h (4 Bft)
30.04.2008 09:19 11,6 C 85 % 1000,5 hPa 0,0 l/m 19,3 km/h (3 Bft) S 170 0 min 0 W/m 9,2 C 5,6 C 19,3 km/h (3 Bft)
30.04.2008 09:24 12,0 C 83 % 1000,5 hPa 0,0 l/m 14,8 km/h (3 Bft) S-SO 165 0 min 0 W/m 9,2 C 7,6 C 14,8 km/h (3 Bft)
30.04.2008 09:29 12,2 C 82 % 1000,5 hPa 0,0 l/m 17,1 km/h (3 Bft) S 170 0 min 0 W/m 9,2 C 7,0 C 17,1 km/h (3 Bft)
30.04.2008 09:34 12,3 C 83 % 1000,5 hPa 0,0 l/m 17,8 km/h (3 Bft) S-SO 150 0 min 0 W/m 9,5 C 6,9 C 17,8 km/h (3 Bft)
30.04.2008 09:39 13,1 C 85 % 1000,5 hPa 0,0 l/m 10,2 km/h (2 Bft) S-SO 150 0 min 0 W/m 10,6 C 10,9 C 10,2 km/h (2 Bft)
30.04.2008 09:43 14,4 C 79 % 1000,5 hPa 0,0 l/m 18,4 km/h (3 Bft) S-SO 165 0 min 0 W/m 10,8 C 9,4 C 18,4 km/h (3 Bft)
30.04.2008 09:49 15,2 C 82 % 1000,5 hPa 0,0 l/m 12,8 km/h (3 Bft) S-SO 160 0 min 0 W/m 12,1 C 12,2 C 12,8 km/h (3 Bft)
30.04.2008 09:54 16,9 C 77 % 1000,5 hPa 0,0 l/m 14,6 km/h (3 Bft) S-SO 160 0 min 0 W/m 12,8 C 13,6 C 14,6 km/h (3 Bft)
30.04.2008 09:59 17,6 C 73 % 1000,5 hPa 0,0 l/m 21,3 km/h (4 Bft) S 170 0 min 0 W/m 12,7 C 12,8 C 21,3 km/h (4 Bft)
30.04.2008 10:04 17,9 C 71 % 1000,5 hPa 0,0 l/m 7,6 km/h (2 Bft) SO 135 0 min 0 W/m 12,6 C 17,3 C 7,6 km/h (2 Bft)
30.04.2008 10:09 18,5 C 67 % 1000,5 hPa 0,0 l/m 13,5 km/h (3 Bft) SO 140 0 min 0 W/m 12,3 C 15,8 C 13,5 km/h (3 Bft)
30.04.2008 10:14 18,5 C 67 % 1000,5 hPa 0,0 l/m 13,0 km/h (3 Bft) SO 125 0 min 0 W/m 12,3 C 16,0 C 13,0 km/h (3 Bft)
30.04.2008 10:19 18,6 C 67 % 1000,5 hPa 0,0 l/m 13,3 km/h (3 Bft) S-SO 150 0 min 0 W/m 12,3 C 16,0 C 13,3 km/h (3 Bft)
30.04.2008 10:24 19,0 C 66 % 1000,5 hPa 0,0 l/m 11,9 km/h (2 Bft) S-SO 150 0 min 0 W/m 12,5 C 16,9 C 11,9 km/h (2 Bft)
30.04.2008 10:29 19,1 C 66 % 1000,5 hPa 0,0 l/m 21,2 km/h (4 Bft) SO 135 0 min 0 W/m 12,6 C 14,8 C 21,2 km/h (4 Bft)
30.04.2008 10:34 18,9 C 64 % 1000,5 hPa 0,0 l/m 25,9 km/h (4 Bft) SO 145 0 min 0 W/m 11,9 C 13,8 C 25,9 km/h (4 Bft)
30.04.2008 10:39 18,8 C 65 % 1000,5 hPa 0,0 l/m 25,9 km/h (4 Bft) SO 145 0 min 0 W/m 12,1 C 13,6 C 25,9 km/h (4 Bft)
30.04.2008 10:44 18,6 C 65 % 1000,5 hPa 0,0 l/m 16,1 km/h (3 Bft) SO 125 0 min 0 W/m 11,9 C 15,3 C 16,1 km/h (3 Bft)
30.04.2008 10:49 18,3 C 64 % 1000,5 hPa 0,0 l/m 15,0 km/h (3 Bft) O-SO 105 0 min 0 W/m 11,4 C 15,2 C 15,0 km/h (3 Bft)
30.04.2008 10:54 18,4 C 65 % 1000,5 hPa 0,0 l/m 9,8 km/h (2 Bft) S-SO 155 0 min 0 W/m 11,7 C 16,9 C 9,8 km/h (2 Bft)
30.04.2008 10:59 18,4 C 65 % 1000,5 hPa 0,0 l/m 16,0 km/h (3 Bft) SO 125 0 min 0 W/m 11,7 C 15,1 C 16,0 km/h (3 Bft)
30.04.2008 11:04 18,1 C 63 % 1000,5 hPa 0,0 l/m 16,9 km/h (3 Bft) SO 145 0 min 0 W/m 10,9 C 14,5 C 16,9 km/h (3 Bft)
30.04.2008 11:09 18,0 C 65 % 1000,5 hPa 0,0 l/m 17,0 km/h (3 Bft) O-SO 105 0 min 0 W/m 11,3 C 14,3 C 17,0 km/h (3 Bft)
30.04.2008 11:14 18,1 C 64 % 1000,5 hPa 0,0 l/m 15,2 km/h (3 Bft) O-SO 120 0 min 0 W/m 11,2 C 14,9 C 15,2 km/h (3 Bft)
30.04.2008 11:19 18,0 C 64 % 1000,5 hPa 0,0 l/m 18,2 km/h (3 Bft) O 100 0 min 0 W/m 11,1 C 14,0 C 18,2 km/h (3 Bft)
30.04.2008 11:24 18,0 C 61 % 1000,5 hPa 0,0 l/m 17,0 km/h (3 Bft) SO 125 0 min 0 W/m 10,4 C 14,3 C 17,0 km/h (3 Bft)
30.04.2008 11:29 18,0 C 63 % 1000,5 hPa 0,0 l/m 26,4 km/h (4 Bft) O-SO 105 0 min 0 W/m 10,8 C 12,4 C 26,4 km/h (4 Bft)
30.04.2008 11:34 18,4 C 60 % 1000,5 hPa 0,0 l/m 26,3 km/h (4 Bft) S-SO 150 0 min 0 W/m 10,5 C 13,0 C 26,3 km/h (4 Bft)
30.04.2008 11:39 18,4 C 59 % 1000,5 hPa 0,0 l/m 21,4 km/h (4 Bft) S-SO 150 0 min 0 W/m 10,2 C 13,9 C 21,4 km/h (4 Bft)
30.04.2008 11:44 18,6 C 59 % 1000,5 hPa 0,0 l/m 19,8 km/h (3 Bft) SO 145 0 min 0 W/m 10,4 C 14,4 C 19,8 km/h (3 Bft)
30.04.2008 11:49 18,8 C 55 % 1000,5 hPa 0,0 l/m 22,2 km/h (4 Bft) SO 130 0 min 0 W/m 9,6 C 14,2 C 22,2 km/h (4 Bft)
30.04.2008 11:54 19,0 C 54 % 1000,5 hPa 0,0 l/m 20,1 km/h (4 Bft) SO 130 0 min 0 W/m 9,5 C 14,9 C 20,1 km/h (4 Bft)
30.04.2008 11:59 19,0 C 54 % 1000,5 hPa 0,0 l/m 20,1 km/h (4 Bft) SO 130 0 min 0 W/m 9,5 C 14,9 C 20,1 km/h (4 Bft)
30.04.2008 12:04 19,1 C 55 % 1000,5 hPa 0,0 l/m 25,3 km/h (4 Bft) S-SO 150 0 min 0 W/m 9,8 C 14,1 C 25,3 km/h (4 Bft)
30.04.2008 12:09 19,2 C 50 % 1000,5 hPa 0,0 l/m 25,3 km/h (4 Bft) SO 140 0 min 0 W/m 8,5 C 14,3 C 25,3 km/h (4 Bft)
30.04.2008 12:14 19,2 C 49 % 1000,5 hPa 0,0 l/m 31,3 km/h (5 Bft) S 175 0 min 0 W/m 8,2 C 13,4 C 31,3 km/h (5 Bft)
30.04.2008 12:19 19,3 C 49 % 1000,5 hPa 0,0 l/m 19,0 km/h (3 Bft) S 170 0 min 0 W/m 8,3 C 15,5 C 19,0 km/h (3 Bft)
30.04.2008 12:24 18,9 C 50 % 1000,5 hPa 0,0 l/m 32,5 km/h (5 Bft) S-SO 150 0 min 0 W/m 8,2 C 12,9 C 32,5 km/h (5 Bft)
30.04.2008 12:29 19,1 C 50 % 999,5 hPa 0,0 l/m 25,6 km/h (4 Bft) S 175 0 min 0 W/m 8,4 C 14,1 C 25,6 km/h (4 Bft)
30.04.2008 12:34 19,1 C 50 % 999,5 hPa 0,0 l/m 22,7 km/h (4 Bft) SO 140 0 min 0 W/m 8,4 C 14,5 C 22,7 km/h (4 Bft)
30.04.2008 12:39 19,5 C 50 % 999,5 hPa 0,0 l/m 25,4 km/h (4 Bft) S 170 0 min 0 W/m 8,8 C 14,6 C 25,4 km/h (4 Bft)
30.04.2008 12:44 19,4 C 49 % 999,5 hPa 0,0 l/m 21,5 km/h (4 Bft) S 170 0 min 0 W/m 8,4 C 15,2 C 21,5 km/h (4 Bft)
30.04.2008 12:49 19,4 C 50 % 999,5 hPa 0,0 l/m 20,0 km/h (4 Bft) S 170 0 min 0 W/m 8,7 C 15,4 C 20,0 km/h (4 Bft)
30.04.2008 12:54 19,3 C 48 % 999,5 hPa 0,0 l/m 40,5 km/h (6 Bft) S-SO 150 0 min 0 W/m 8,0 C 12,6 C 40,5 km/h (6 Bft)
30.04.2008 12:59 19,2 C 48 % 999,5 hPa 0,0 l/m 23,6 km/h (4 Bft) S-SO 160 0 min 0 W/m 7,9 C 14,5 C 23,6 km/h (4 Bft)
30.04.2008 13:04 19,1 C 49 % 999,5 hPa 0,0 l/m 20,3 km/h (4 Bft) S-SO 160 0 min 0 W/m 8,1 C 15,0 C 20,3 km/h (4 Bft)
30.04.2008 13:09 19,2 C 47 % 999,5 hPa 0,0 l/m 23,5 km/h (4 Bft) S 175 0 min 0 W/m 7,6 C 14,5 C 23,5 km/h (4 Bft)
30.04.2008 13:13 18,9 C 47 % 999,5 hPa 0,0 l/m 27,1 km/h (5 Bft) SO 140 0 min 0 W/m 7,3 C 13,6 C 27,1 km/h (5 Bft)
30.04.2008 13:19 18,8 C 49 % 999,5 hPa 0,0 l/m 28,0 km/h (5 Bft) S 170 0 min 0 W/m 7,9 C 13,3 C 28,0 km/h (5 Bft)
30.04.2008 13:24 18,8 C 50 % 999,5 hPa 0,0 l/m 20,2 km/h (4 Bft) S-SO 160 0 min 0 W/m 8,2 C 14,6 C 20,2 km/h (4 Bft)
30.04.2008 13:29 18,8 C 49 % 999,5 hPa 0,0 l/m 19,8 km/h (3 Bft) S 185 0 min 0 W/m 7,9 C 14,7 C 19,8 km/h (3 Bft)
30.04.2008 13:34 18,6 C 50 % 999,5 hPa 0,0 l/m 22,1 km/h (4 Bft) SO 135 0 min 0 W/m 8,0 C 14,0 C 22,1 km/h (4 Bft)
30.04.2008 13:39 18,7 C 49 % 999,5 hPa 0,0 l/m 18,4 km/h (3 Bft) SO 145 0 min 0 W/m 7,8 C 14,9 C 18,4 km/h (3 Bft)
30.04.2008 13:44 18,8 C 49 % 999,5 hPa 0,0 l/m 22,3 km/h (4 Bft) S-SO 165 0 min 0 W/m 7,9 C 14,2 C 22,3 km/h (4 Bft)
30.04.2008 13:49 19,1 C 49 % 999,5 hPa 0,0 l/m 16,4 km/h (3 Bft) SO 145 0 min 0 W/m 8,1 C 15,8 C 16,4 km/h (3 Bft)
30.04.2008 13:54 19,3 C 48 % 999,5 hPa 0,0 l/m 20,6 km/h (4 Bft) S-SO 160 0 min 0 W/m 8,0 C 15,2 C 20,6 km/h (4 Bft)
30.04.2008 13:59 19,6 C 49 % 999,5 hPa 0,0 l/m 24,3 km/h (4 Bft) SO 125 0 min 0 W/m 8,6 C 14,9 C 24,3 km/h (4 Bft)
30.04.2008 14:04 19,6 C 47 % 999,5 hPa 0,0 l/m 21,0 km/h (4 Bft) S-SO 150 0 min 0 W/m 8,0 C 15,5 C 21,0 km/h (4 Bft)
30.04.2008 14:09 19,8 C 44 % 999,5 hPa 0,0 l/m 24,3 km/h (4 Bft) S 170 0 min 0 W/m 7,2 C 15,2 C 24,3 km/h (4 Bft)
30.04.2008 14:14 20,1 C 44 % 999,5 hPa 0,0 l/m 26,5 km/h (4 Bft) S-SO 155 0 min 0 W/m 7,5 C 15,3 C 26,5 km/h (4 Bft)
30.04.2008 14:19 20,4 C 42 % 999,5 hPa 0,0 l/m 28,8 km/h (5 Bft) S-SO 160 0 min 0 W/m 7,1 C 15,4 C 28,8 km/h (5 Bft)
30.04.2008 14:24 20,7 C 43 % 999,5 hPa 0,0 l/m 18,9 km/h (3 Bft) S-SO 165 0 min 0 W/m 7,7 C 17,3 C 18,9 km/h (3 Bft)
30.04.2008 14:29 20,9 C 42 % 999,5 hPa 0,0 l/m 17,1 km/h (3 Bft) S-SO 150 0 min 0 W/m 7,5 C 17,9 C 17,1 km/h (3 Bft)
30.04.2008 14:34 20,8 C 41 % 999,5 hPa 0,0 l/m 27,0 km/h (5 Bft) S-SO 150 0 min 0 W/m 7,1 C 16,2 C 27,0 km/h (5 Bft)
30.04.2008 14:39 20,4 C 42 % 999,5 hPa 0,0 l/m 33,0 km/h (5 Bft) S-SO 150 0 min 0 W/m 7,1 C 15,0 C 33,0 km/h (5 Bft)
30.04.2008 14:44 20,3 C 44 % 999,5 hPa 0,0 l/m 26,0 km/h (4 Bft) S-SO 160 0 min 0 W/m 7,6 C 15,6 C 26,0 km/h (4 Bft)
30.04.2008 14:49 19,9 C 42 % 999,5 hPa 0,0 l/m 26,1 km/h (4 Bft) S-SO 150 0 min 0 W/m 6,6 C 15,1 C 26,1 km/h (4 Bft)
30.04.2008 14:54 19,8 C 43 % 999,5 hPa 0,0 l/m 19,0 km/h (3 Bft) S-SO 150 0 min 0 W/m 6,9 C 16,1 C 19,0 km/h (3 Bft)
30.04.2008 14:59 19,9 C 44 % 999,5 hPa 0,0 l/m 22,8 km/h (4 Bft) SO 140 0 min 0 W/m 7,3 C 15,6 C 22,8 km/h (4 Bft)
30.04.2008 15:04 20,3 C 44 % 998,5 hPa 0,0 l/m 24,0 km/h (4 Bft) SO 140 0 min 0 W/m 7,6 C 15,9 C 24,0 km/h (4 Bft)
30.04.2008 15:09 20,6 C 42 % 998,5 hPa 0,0 l/m 20,0 km/h (4 Bft) S-SO 150 0 min 0 W/m 7,2 C 17,0 C 20,0 km/h (4 Bft)
30.04.2008 15:14 20,8 C 42 % 998,5 hPa 0,0 l/m 23,5 km/h (4 Bft) S 170 0 min 0 W/m 7,4 C 16,7 C 23,5 km/h (4 Bft)
30.04.2008 15:19 21,1 C 42 % 998,5 hPa 0,0 l/m 23,8 km/h (4 Bft) S-SO 155 0 min 0 W/m 7,7 C 17,0 C 23,8 km/h (4 Bft)
30.04.2008 15:24 21,2 C 40 % 998,5 hPa 0,0 l/m 25,1 km/h (4 Bft) SO 145 0 min 0 W/m 7,1 C 17,0 C 25,1 km/h (4 Bft)
30.04.2008 15:29 21,1 C 39 % 998,5 hPa 0,0 l/m 27,2 km/h (5 Bft) S 175 0 min 0 W/m 6,6 C 16,6 C 27,2 km/h (5 Bft)
30.04.2008 15:34 21,2 C 39 % 998,5 hPa 0,0 l/m 26,8 km/h (4 Bft) S-SO 165 0 min 0 W/m 6,7 C 16,8 C 26,8 km/h (4 Bft)
30.04.2008 15:39 21,2 C 40 % 998,5 hPa 0,0 l/m 32,0 km/h (5 Bft) S-SO 150 0 min 0 W/m 7,1 C 16,2 C 32,0 km/h (5 Bft)
30.04.2008 15:44 20,9 C 38 % 998,5 hPa 0,0 l/m 29,4 km/h (5 Bft) SO 145 0 min 0 W/m 6,0 C 16,1 C 29,4 km/h (5 Bft)
30.04.2008 15:49 20,7 C 38 % 998,5 hPa 0,0 l/m 29,4 km/h (5 Bft) SO 145 0 min 0 W/m 5,9 C 15,8 C 29,4 km/h (5 Bft)
30.04.2008 15:53 20,3 C 38 % 998,5 hPa 0,0 l/m 22,4 km/h (4 Bft) S-SO 160 0 min 0 W/m 5,5 C 16,2 C 22,4 km/h (4 Bft)
30.04.2008 15:59 20,5 C 40 % 998,5 hPa 0,0 l/m 16,6 km/h (3 Bft) S-SO 150 0 min 0 W/m 6,4 C 17,5 C 16,6 km/h (3 Bft)
30.04.2008 16:04 20,6 C 40 % 998,5 hPa 0,0 l/m 27,0 km/h (5 Bft) S 180 0 min 0 W/m 6,5 C 15,9 C 27,0 km/h (5 Bft)
30.04.2008 16:09 20,6 C 40 % 998,5 hPa 0,0 l/m 24,1 km/h (4 Bft) S 175 0 min 0 W/m 6,5 C 16,3 C 24,1 km/h (4 Bft)
30.04.2008 16:14 20,3 C 38 % 998,5 hPa 0,0 l/m 25,5 km/h (4 Bft) S-SO 155 0 min 0 W/m 5,5 C 15,7 C 25,5 km/h (4 Bft)
30.04.2008 16:19 19,8 C 41 % 998,5 hPa 0,0 l/m 31,4 km/h (5 Bft) S-SO 160 0 min 0 W/m 6,2 C 14,3 C 31,4 km/h (5 Bft)
30.04.2008 16:24 19,8 C 42 % 998,5 hPa 0,0 l/m 22,3 km/h (4 Bft) S-SO 150 0 min 0 W/m 6,5 C 15,5 C 22,3 km/h (4 Bft)
30.04.2008 16:29 19,8 C 42 % 998,5 hPa 0,0 l/m 21,3 km/h (4 Bft) SO 130 0 min 0 W/m 6,5 C 15,7 C 21,3 km/h (4 Bft)
30.04.2008 16:34 20,0 C 41 % 998,5 hPa 0,0 l/m 24,5 km/h (4 Bft) SO 125 0 min 0 W/m 6,3 C 15,5 C 24,5 km/h (4 Bft)
30.04.2008 16:39 20,2 C 41 % 998,5 hPa 0,0 l/m 21,6 km/h (4 Bft) S-SO 150 0 min 0 W/m 6,5 C 16,2 C 21,6 km/h (4 Bft)
30.04.2008 16:44 20,3 C 41 % 998,5 hPa 0,0 l/m 21,6 km/h (4 Bft) S-SO 150 0 min 0 W/m 6,6 C 16,3 C 21,6 km/h (4 Bft)
30.04.2008 16:49 20,1 C 41 % 998,5 hPa 0,0 l/m 26,9 km/h (4 Bft) S-SO 160 0 min 0 W/m 6,4 C 15,3 C 26,9 km/h (4 Bft)
30.04.2008 16:54 19,9 C 42 % 998,5 hPa 0,0 l/m 28,4 km/h (5 Bft) S-SO 165 0 min 0 W/m 6,6 C 14,8 C 28,4 km/h (5 Bft)
30.04.2008 16:59 19,8 C 43 % 998,5 hPa 0,0 l/m 18,8 km/h (3 Bft) S-SO 155 0 min 0 W/m 6,9 C 16,2 C 18,8 km/h (3 Bft)
30.04.2008 17:04 19,7 C 44 % 998,5 hPa 0,0 l/m 32,5 km/h (5 Bft) S-SO 165 0 min 0 W/m 7,1 C 14,0 C 32,5 km/h (5 Bft)
30.04.2008 17:09 19,9 C 42 % 998,5 hPa 0,0 l/m 24,1 km/h (4 Bft) S-SO 165 0 min 0 W/m 6,6 C 15,4 C 24,1 km/h (4 Bft)
30.04.2008 17:14 20,0 C 41 % 998,5 hPa 0,0 l/m 28,0 km/h (5 Bft) S 175 0 min 0 W/m 6,3 C 15,0 C 28,0 km/h (5 Bft)
30.04.2008 17:19 19,6 C 43 % 998,5 hPa 0,0 l/m 20,4 km/h (4 Bft) S-SO 165 0 min 0 W/m 6,7 C 15,6 C 20,4 km/h (4 Bft)
30.04.2008 17:24 19,4 C 43 % 998,5 hPa 0,0 l/m 17,8 km/h (3 Bft) S-SO 150 0 min 0 W/m 6,5 C 15,9 C 17,8 km/h (3 Bft)
30.04.2008 17:29 19,4 C 44 % 998,5 hPa 0,0 l/m 18,8 km/h (3 Bft) S-SO 150 0 min 0 W/m 6,8 C 15,7 C 18,8 km/h (3 Bft)
30.04.2008 17:34 19,4 C 43 % 998,5 hPa 0,0 l/m 18,9 km/h (3 Bft) SO 135 0 min 0 W/m 6,5 C 15,6 C 18,9 km/h (3 Bft)
30.04.2008 17:39 19,4 C 44 % 998,5 hPa 0,0 l/m 19,6 km/h (3 Bft) SO 145 0 min 0 W/m 6,8 C 15,5 C 19,6 km/h (3 Bft)
30.04.2008 17:44 19,4 C 47 % 998,5 hPa 0,0 l/m 19,6 km/h (3 Bft) SO 135 0 min 0 W/m 7,8 C 15,5 C 19,6 km/h (3 Bft)
30.04.2008 17:49 19,2 C 47 % 998,5 hPa 0,0 l/m 21,1 km/h (4 Bft) SO 130 0 min 0 W/m 7,6 C 15,0 C 21,1 km/h (4 Bft)
30.04.2008 17:54 18,8 C 48 % 998,5 hPa 0,0 l/m 18,8 km/h (3 Bft) SO 125 0 min 0 W/m 7,6 C 14,9 C 18,8 km/h (3 Bft)
30.04.2008 17:59 18,8 C 50 % 998,5 hPa 0,0 l/m 20,0 km/h (4 Bft) O-SO 115 0 min 0 W/m 8,2 C 14,7 C 20,0 km/h (4 Bft)
30.04.2008 18:04 18,7 C 49 % 998,5 hPa 0,0 l/m 18,8 km/h (3 Bft) O-SO 120 0 min 0 W/m 7,8 C 14,8 C 18,8 km/h (3 Bft)
30.04.2008 18:09 18,7 C 49 % 998,5 hPa 0,0 l/m 17,3 km/h (3 Bft) SO 125 0 min 0 W/m 7,8 C 15,1 C 17,3 km/h (3 Bft)
30.04.2008 18:14 18,7 C 50 % 998,5 hPa 0,0 l/m 18,0 km/h (3 Bft) O-SO 115 0 min 0 W/m 8,1 C 15,0 C 18,0 km/h (3 Bft)
30.04.2008 18:19 18,6 C 50 % 998,5 hPa 0,0 l/m 14,8 km/h (3 Bft) O-SO 115 0 min 0 W/m 8,0 C 15,6 C 14,8 km/h (3 Bft)
30.04.2008 18:24 18,4 C 50 % 998,5 hPa 0,0 l/m 21,2 km/h (4 Bft) O-SO 115 0 min 0 W/m 7,8 C 13,9 C 21,2 km/h (4 Bft)
30.04.2008 18:29 18,2 C 52 % 998,5 hPa 0,0 l/m 12,2 km/h (2 Bft) O-SO 105 0 min 0 W/m 8,2 C 15,9 C 12,2 km/h (2 Bft)
30.04.2008 18:34 18,1 C 52 % 998,5 hPa 0,0 l/m 19,8 km/h (3 Bft) SO 125 0 min 0 W/m 8,1 C 13,8 C 19,8 km/h (3 Bft)
30.04.2008 18:38 18,0 C 54 % 998,5 hPa 0,0 l/m 20,2 km/h (4 Bft) O 95 0 min 0 W/m 8,6 C 13,6 C 20,2 km/h (4 Bft)
30.04.2008 18:44 17,7 C 54 % 998,5 hPa 0,0 l/m 16,5 km/h (3 Bft) O-SO 120 0 min 0 W/m 8,3 C 14,1 C 16,5 km/h (3 Bft)
30.04.2008 18:49 17,6 C 55 % 998,5 hPa 0,0 l/m 19,6 km/h (3 Bft) O-SO 115 0 min 0 W/m 8,5 C 13,2 C 19,6 km/h (3 Bft)
30.04.2008 18:54 17,5 C 55 % 998,5 hPa 0,0 l/m 17,5 km/h (3 Bft) O 100 0 min 0 W/m 8,4 C 13,6 C 17,5 km/h (3 Bft)
30.04.2008 18:59 17,3 C 55 % 998,5 hPa 0,0 l/m 18,1 km/h (3 Bft) O-SO 115 0 min 0 W/m 8,2 C 13,2 C 18,1 km/h (3 Bft)
30.04.2008 19:04 17,3 C 56 % 998,5 hPa 0,0 l/m 19,4 km/h (3 Bft) O-SO 105 0 min 0 W/m 8,4 C 12,9 C 19,4 km/h (3 Bft)
30.04.2008 19:09 17,2 C 56 % 998,5 hPa 0,0 l/m 20,9 km/h (4 Bft) O-SO 110 0 min 0 W/m 8,3 C 12,4 C 20,9 km/h (4 Bft)
30.04.2008 19:14 17,0 C 57 % 998,5 hPa 0,0 l/m 15,3 km/h (3 Bft) O-SO 115 0 min 0 W/m 8,4 C 13,5 C 15,3 km/h (3 Bft)
30.04.2008 19:19 16,9 C 57 % 998,5 hPa 0,0 l/m 13,4 km/h (3 Bft) O-SO 105 0 min 0 W/m 8,3 C 14,0 C 13,4 km/h (3 Bft)
30.04.2008 19:24 16,8 C 58 % 998,5 hPa 0,0 l/m 12,5 km/h (2 Bft) SO 125 0 min 0 W/m 8,5 C 14,2 C 12,5 km/h (2 Bft)
30.04.2008 19:29 16,6 C 59 % 998,5 hPa 0,0 l/m 15,7 km/h (3 Bft) SO 125 0 min 0 W/m 8,6 C 12,9 C 15,7 km/h (3 Bft)
30.04.2008 19:34 16,4 C 60 % 998,5 hPa 0,0 l/m 11,1 km/h (2 Bft) O-SO 110 0 min 0 W/m 8,6 C 14,2 C 11,1 km/h (2 Bft)
30.04.2008 19:39 16,4 C 60 % 998,5 hPa 0,0 l/m 14,8 km/h (3 Bft) O 85 0 min 0 W/m 8,6 C 12,9 C 14,8 km/h (3 Bft)
30.04.2008 19:44 16,2 C 62 % 998,5 hPa 0,0 l/m 17,6 km/h (3 Bft) O-SO 115 0 min 0 W/m 8,9 C 11,9 C 17,6 km/h (3 Bft)
30.04.2008 19:49 16,2 C 62 % 998,5 hPa 0,0 l/m 16,3 km/h (3 Bft) O-SO 115 0 min 0 W/m 8,9 C 12,3 C 16,3 km/h (3 Bft)
30.04.2008 19:54 16,1 C 62 % 998,5 hPa 0,0 l/m 16,9 km/h (3 Bft) O 95 0 min 0 W/m 8,8 C 12,0 C 16,9 km/h (3 Bft)
30.04.2008 19:59 16,0 C 62 % 998,5 hPa 0,0 l/m 16,9 km/h (3 Bft) O 95 0 min 0 W/m 8,7 C 11,8 C 16,9 km/h (3 Bft)
30.04.2008 20:04 16,0 C 63 % 998,5 hPa 0,0 l/m 18,3 km/h (3 Bft) O-SO 105 0 min 0 W/m 9,0 C 11,5 C 18,3 km/h (3 Bft)
30.04.2008 20:09 15,9 C 62 % 998,5 hPa 0,0 l/m 17,0 km/h (3 Bft) O-SO 120 0 min 0 W/m 8,6 C 11,7 C 17,0 km/h (3 Bft)
30.04.2008 20:14 16,0 C 62 % 998,5 hPa 0,0 l/m 15,7 km/h (3 Bft) O 100 0 min 0 W/m 8,7 C 12,2 C 15,7 km/h (3 Bft)
30.04.2008 20:19 15,9 C 61 % 998,5 hPa 0,0 l/m 14,8 km/h (3 Bft) O-SO 120 0 min 0 W/m 8,4 C 12,3 C 14,8 km/h (3 Bft)
30.04.2008 20:24 15,9 C 61 % 998,5 hPa 0,0 l/m 15,9 km/h (3 Bft) SO 125 0 min 0 W/m 8,4 C 12,0 C 15,9 km/h (3 Bft)
30.04.2008 20:29 15,8 C 61 % 998,5 hPa 0,0 l/m 16,2 km/h (3 Bft) SO 135 0 min 0 W/m 8,3 C 11,8 C 16,2 km/h (3 Bft)
30.04.2008 20:34 15,8 C 62 % 998,5 hPa 0,0 l/m 11,6 km/h (2 Bft) S-SO 155 0 min 0 W/m 8,5 C 13,3 C 11,6 km/h (2 Bft)
30.04.2008 20:39 15,7 C 64 % 999,5 hPa 0,0 l/m 16,8 km/h (3 Bft) S-SO 160 0 min 0 W/m 8,9 C 11,5 C 16,8 km/h (3 Bft)
30.04.2008 20:44 15,6 C 65 % 999,5 hPa 0,0 l/m 7,2 km/h (2 Bft) S-SO 150 0 min 0 W/m 9,0 C 15,2 C 7,2 km/h (2 Bft)
30.04.2008 20:49 15,3 C 69 % 999,5 hPa 0,0 l/m 15,0 km/h (3 Bft) SO 145 0 min 0 W/m 9,6 C 11,6 C 15,0 km/h (3 Bft)
30.04.2008 20:54 15,0 C 69 % 999,5 hPa 0,0 l/m 8,9 km/h (2 Bft) SO 130 0 min 0 W/m 9,4 C 13,6 C 8,9 km/h (2 Bft)
30.04.2008 20:59 14,8 C 69 % 999,5 hPa 0,0 l/m 7,0 km/h (2 Bft) SO 135 0 min 0 W/m 9,2 C 14,5 C 7,0 km/h (2 Bft)
30.04.2008 21:04 14,5 C 70 % 999,5 hPa 0,0 l/m 9,8 km/h (2 Bft) S-SO 150 0 min 0 W/m 9,1 C 12,7 C 9,8 km/h (2 Bft)
30.04.2008 21:09 14,4 C 70 % 999,5 hPa 0,0 l/m 10,0 km/h (2 Bft) S-SO 150 0 min 0 W/m 9,0 C 12,5 C 10,0 km/h (2 Bft)
30.04.2008 21:14 14,4 C 71 % 999,5 hPa 0,0 l/m 12,2 km/h (2 Bft) S 185 0 min 0 W/m 9,2 C 11,5 C 12,2 km/h (2 Bft)
30.04.2008 21:19 14,5 C 71 % 999,5 hPa 0,0 l/m 8,5 km/h (2 Bft) S-SW 200 0 min 0 W/m 9,3 C 13,3 C 8,5 km/h (2 Bft)
30.04.2008 21:24 14,6 C 73 % 999,5 hPa 0,3 l/m 15,1 km/h (3 Bft) W 260 0 min 0 W/m 9,8 C 10,7 C 15,1 km/h (3 Bft)
30.04.2008 21:29 14,5 C 76 % 999,5 hPa 0,3 l/m 14,0 km/h (3 Bft) W-NW 295 0 min 0 W/m 10,3 C 10,9 C 14,0 km/h (3 Bft)
30.04.2008 21:34 14,4 C 77 % 999,5 hPa 0,0 l/m 15,9 km/h (3 Bft) NW 305 0 min 0 W/m 10,4 C 10,2 C 15,9 km/h (3 Bft)
30.04.2008 21:39 14,0 C 79 % 999,5 hPa 0,3 l/m 8,2 km/h (2 Bft) W-NW 300 0 min 0 W/m 10,4 C 12,9 C 8,2 km/h (2 Bft)
30.04.2008 21:44 13,8 C 79 % 1000,5 hPa 0,9 l/m 8,2 km/h (2 Bft) W 265 0 min 0 W/m 10,2 C 12,7 C 8,2 km/h (2 Bft)
30.04.2008 21:49 13,6 C 78 % 1000,5 hPa 0,6 l/m 8,3 km/h (2 Bft) NW 315 0 min 0 W/m 9,8 C 12,5 C 8,3 km/h (2 Bft)
30.04.2008 21:54 13,4 C 85 % 1000,5 hPa 0,3 l/m 17,4 km/h (3 Bft) W-NW 285 0 min 0 W/m 10,9 C 8,4 C 17,4 km/h (3 Bft)
30.04.2008 21:59 13,2 C 86 % 1000,5 hPa 0,0 l/m 16,1 km/h (3 Bft) W-NW 285 0 min 0 W/m 10,9 C 8,6 C 16,1 km/h (3 Bft)
30.04.2008 22:04 13,0 C 85 % 1000,5 hPa 0,9 l/m 16,1 km/h (3 Bft) W-NW 285 0 min 0 W/m 10,5 C 8,4 C 16,1 km/h (3 Bft)
30.04.2008 22:09 13,0 C 84 % 1000,5 hPa 0,3 l/m 8,9 km/h (2 Bft) S 185 0 min 0 W/m 10,4 C 11,5 C 8,9 km/h (2 Bft)
30.04.2008 22:14 12,9 C 85 % 1000,5 hPa 0,6 l/m 10,0 km/h (2 Bft) S-SO 160 0 min 0 W/m 10,4 C 10,8 C 10,0 km/h (2 Bft)
30.04.2008 22:19 12,8 C 86 % 1000,5 hPa 0,0 l/m 13,4 km/h (3 Bft) S-SO 160 0 min 0 W/m 10,5 C 9,1 C 13,4 km/h (3 Bft)
30.04.2008 22:24 12,7 C 86 % 1000,5 hPa 0,0 l/m 12,9 km/h (3 Bft) S-SO 160 0 min 0 W/m 10,4 C 9,2 C 12,9 km/h (3 Bft)
30.04.2008 22:29 12,7 C 86 % 1000,5 hPa 0,0 l/m 10,5 km/h (2 Bft) S-SO 155 0 min 0 W/m 10,4 C 10,3 C 10,5 km/h (2 Bft)
30.04.2008 22:34 12,6 C 88 % 1000,5 hPa 0,0 l/m 11,4 km/h (2 Bft) S-SO 165 0 min 0 W/m 10,7 C 9,8 C 11,4 km/h (2 Bft)
30.04.2008 22:39 12,6 C 88 % 1000,5 hPa 0,0 l/m 11,8 km/h (2 Bft) S 180 0 min 0 W/m 10,7 C 9,6 C 11,8 km/h (2 Bft)
30.04.2008 22:44 12,5 C 88 % 1000,5 hPa 0,0 l/m 7,0 km/h (2 Bft) S-SO 165 0 min 0 W/m 10,6 C 12,1 C 7,0 km/h (2 Bft)
30.04.2008 22:49 12,5 C 87 % 1000,5 hPa 0,0 l/m 5,9 km/h (2 Bft) S-SO 160 0 min 0 W/m 10,4 C 12,5 C 5,9 km/h (2 Bft)
30.04.2008 22:54 12,5 C 87 % 1000,5 hPa 0,0 l/m 4,3 km/h (1 Bft) S-SO 160 0 min 0 W/m 10,4 C 12,5 C 4,3 km/h (1 Bft)
30.04.2008 22:59 12,5 C 87 % 1000,5 hPa 0,0 l/m 0,1 km/h (0 Bft) S-SO 160 0 min 0 W/m 10,4 C 12,5 C 0,1 km/h (0 Bft)
30.04.2008 23:04 12,5 C 87 % 1000,5 hPa 0,0 l/m 0,0 km/h (0 Bft) S-SO 160 0 min 0 W/m 10,4 C 12,5 C 0,0 km/h (0 Bft)
30.04.2008 23:09 12,4 C 87 % 1000,5 hPa 0,0 l/m 0,1 km/h (0 Bft) S-SO 160 0 min 0 W/m 10,3 C 12,4 C 0,1 km/h (0 Bft)
30.04.2008 23:14 12,4 C 87 % 1000,5 hPa 0,0 l/m 0,1 km/h (0 Bft) S-SO 160 0 min 0 W/m 10,3 C 12,4 C 0,1 km/h (0 Bft)
30.04.2008 23:19 12,4 C 87 % 1000,5 hPa 0,0 l/m 0,4 km/h (0 Bft) S-SO 160 0 min 0 W/m 10,3 C 12,4 C 0,4 km/h (0 Bft)
30.04.2008 23:24 12,3 C 87 % 1000,5 hPa 0,0 l/m 0,4 km/h (0 Bft) S-SO 160 0 min 0 W/m 10,2 C 12,3 C 0,4 km/h (0 Bft)
30.04.2008 23:29 12,3 C 87 % 1000,5 hPa 0,0 l/m 6,6 km/h (2 Bft) S 175 0 min 0 W/m 10,2 C 12,2 C 6,6 km/h (2 Bft)
30.04.2008 23:34 12,2 C 87 % 1000,5 hPa 0,0 l/m 4,9 km/h (1 Bft) S-SO 160 0 min 0 W/m 10,1 C 12,2 C 4,9 km/h (1 Bft)
30.04.2008 23:39 12,2 C 87 % 1000,5 hPa 0,0 l/m 3,7 km/h (1 Bft) S 170 0 min 0 W/m 10,1 C 12,2 C 3,7 km/h (1 Bft)
30.04.2008 23:44 12,1 C 87 % 1000,5 hPa 0,0 l/m 5,7 km/h (2 Bft) S-SO 160 0 min 0 W/m 10,0 C 12,1 C 5,7 km/h (2 Bft)
30.04.2008 23:49 12,0 C 88 % 1000,5 hPa 0,0 l/m 3,3 km/h (1 Bft) S-SO 160 0 min 0 W/m 10,1 C 12,0 C 3,3 km/h (1 Bft)
30.04.2008 23:54 12,0 C 88 % 1000,5 hPa 0,0 l/m 11,6 km/h (2 Bft) S-SO 160 0 min 0 W/m 10,1 C 9,0 C 11,6 km/h (2 Bft)
30.04.2008 23:59 12,0 C 88 % 1000,5 hPa 0,0 l/m 5,6 km/h (2 Bft) S-SO 165 0 min 0 W/m 10,1 C 12,0 C 5,6 km/h (2 Bft)
_ Min-Zeit 03:49 15:44 15:04 - 23:04 - - - - 15:53 07:34 23:04
Minimum _ 8,0 C 38 % 998,5 hPa - 0,0 km/h (0 Bft) - - - - 5,5 C 4,2 C 0,0 km/h (0 Bft)
_ Max-Zeit 15:24 04:49 00:04 21:44 12:54 - - 00:04 00:04 09:54 14:29 12:54
Maximum _ 21,2 C 97 % 1001,5 hPa 0,9 l/m 40,5 km/h
S-SO (6 Bft)
- - 0 min 0 W/m 12,8 C 17,9 C 40,5 km/h
S-SO (6 Bft)
Durchschnitt _ 14,2 C 73 % 1000,0 hPa #4,8 l/m 14,9 km/h (3 Bft) S-SO - #0 min. 0 W/m 8,6 C 11,1 C 14,9 km/h (3 Bft)
copyright by Holger Just